sensor_id;sensor_type;location;lat;lon;timestamp;temperature;humidity
4757;DHT22;2392;52.578;13.426;2023-08-08T00:01:06;14.80;99.90
4757;DHT22;2392;52.578;13.426;2023-08-08T00:03:34;14.70;99.90
4757;DHT22;2392;52.578;13.426;2023-08-08T00:06:01;14.70;99.90
4757;DHT22;2392;52.578;13.426;2023-08-08T00:08:28;14.70;99.90
4757;DHT22;2392;52.578;13.426;2023-08-08T00:10:55;14.70;99.90
4757;DHT22;2392;52.578;13.426;2023-08-08T00:13:23;14.60;99.90
4757;DHT22;2392;52.578;13.426;2023-08-08T00:15:50;14.60;99.90
4757;DHT22;2392;52.578;13.426;2023-08-08T00:18:17;14.50;99.90
4757;DHT22;2392;52.578;13.426;2023-08-08T00:20:46;14.50;99.90
4757;DHT22;2392;52.578;13.426;2023-08-08T00:23:13;14.50;99.90
4757;DHT22;2392;52.578;13.426;2023-08-08T00:25:40;14.50;99.90
4757;DHT22;2392;52.578;13.426;2023-08-08T00:28:07;14.50;99.90
4757;DHT22;2392;52.578;13.426;2023-08-08T00:30:36;14.50;99.90
4757;DHT22;2392;52.578;13.426;2023-08-08T00:33:04;14.50;99.90
4757;DHT22;2392;52.578;13.426;2023-08-08T00:35:32;14.50;99.90
4757;DHT22;2392;52.578;13.426;2023-08-08T00:37:59;14.40;99.90
4757;DHT22;2392;52.578;13.426;2023-08-08T00:40:26;14.40;99.90
4757;DHT22;2392;52.578;13.426;2023-08-08T00:42:53;14.40;99.90
4757;DHT22;2392;52.578;13.426;2023-08-08T00:45:20;14.30;99.90
4757;DHT22;2392;52.578;13.426;2023-08-08T00:47:49;14.30;99.90
4757;DHT22;2392;52.578;13.426;2023-08-08T00:50:16;14.30;99.90
4757;DHT22;2392;52.578;13.426;2023-08-08T00:52:44;14.20;99.90
4757;DHT22;2392;52.578;13.426;2023-08-08T00:55:12;14.30;99.90
4757;DHT22;2392;52.578;13.426;2023-08-08T00:57:40;14.20;99.90
4757;DHT22;2392;52.578;13.426;2023-08-08T01:00:08;14.20;99.90
4757;DHT22;2392;52.578;13.426;2023-08-08T01:02:36;14.20;99.90
4757;DHT22;2392;52.578;13.426;2023-08-08T01:05:05;14.20;99.90
4757;DHT22;2392;52.578;13.426;2023-08-08T01:07:38;14.20;99.90
4757;DHT22;2392;52.578;13.426;2023-08-08T01:10:09;14.10;99.90
4757;DHT22;2392;52.578;13.426;2023-08-08T01:12:40;14.00;99.90
4757;DHT22;2392;52.578;13.426;2023-08-08T01:15:10;14.10;99.90
4757;DHT22;2392;52.578;13.426;2023-08-08T01:17:39;14.00;99.90
4757;DHT22;2392;52.578;13.426;2023-08-08T01:20:08;14.00;99.90
4757;DHT22;2392;52.578;13.426;2023-08-08T01:22:39;13.90;99.90
4757;DHT22;2392;52.578;13.426;2023-08-08T01:25:08;13.90;99.90
4757;DHT22;2392;52.578;13.426;2023-08-08T01:27:36;13.90;99.90
4757;DHT22;2392;52.578;13.426;2023-08-08T01:30:04;13.90;99.90
4757;DHT22;2392;52.578;13.426;2023-08-08T01:32:31;13.90;99.90
4757;DHT22;2392;52.578;13.426;2023-08-08T01:34:59;13.80;99.90
4757;DHT22;2392;52.578;13.426;2023-08-08T01:37:32;13.80;99.90
4757;DHT22;2392;52.578;13.426;2023-08-08T01:40:00;13.80;99.90
4757;DHT22;2392;52.578;13.426;2023-08-08T01:42:29;13.80;99.90
4757;DHT22;2392;52.578;13.426;2023-08-08T01:44:57;13.80;99.90
4757;DHT22;2392;52.578;13.426;2023-08-08T01:47:24;13.80;99.90
4757;DHT22;2392;52.578;13.426;2023-08-08T01:49:51;13.80;99.90
4757;DHT22;2392;52.578;13.426;2023-08-08T01:52:18;13.80;99.90
4757;DHT22;2392;52.578;13.426;2023-08-08T01:54:46;13.80;99.90
4757;DHT22;2392;52.578;13.426;2023-08-08T01:57:12;13.80;99.90
4757;DHT22;2392;52.578;13.426;2023-08-08T01:59:41;13.80;99.90
4757;DHT22;2392;52.578;13.426;2023-08-08T02:02:08;13.80;99.90
4757;DHT22;2392;52.578;13.426;2023-08-08T02:04:35;13.80;99.90
4757;DHT22;2392;52.578;13.426;2023-08-08T02:07:02;13.80;99.90
4757;DHT22;2392;52.578;13.426;2023-08-08T02:09:30;13.70;99.90
4757;DHT22;2392;52.578;13.426;2023-08-08T02:11:57;13.70;99.90
4757;DHT22;2392;52.578;13.426;2023-08-08T02:14:24;13.70;99.90
4757;DHT22;2392;52.578;13.426;2023-08-08T02:16:52;13.70;99.90
4757;DHT22;2392;52.578;13.426;2023-08-08T02:19:19;13.70;99.90
4757;DHT22;2392;52.578;13.426;2023-08-08T02:21:46;13.70;99.90
4757;DHT22;2392;52.578;13.426;2023-08-08T02:24:17;13.70;99.90
4757;DHT22;2392;52.578;13.426;2023-08-08T02:26:44;13.70;99.90
4757;DHT22;2392;52.578;13.426;2023-08-08T02:29:11;13.70;99.90
4757;DHT22;2392;52.578;13.426;2023-08-08T02:31:38;13.70;99.90
4757;DHT22;2392;52.578;13.426;2023-08-08T02:34:06;13.60;99.90
4757;DHT22;2392;52.578;13.426;2023-08-08T02:36:33;13.60;99.90
4757;DHT22;2392;52.578;13.426;2023-08-08T02:39:01;13.60;99.90
4757;DHT22;2392;52.578;13.426;2023-08-08T02:41:28;13.60;99.90
4757;DHT22;2392;52.578;13.426;2023-08-08T02:43:56;13.50;99.90
4757;DHT22;2392;52.578;13.426;2023-08-08T02:46:23;13.50;99.90
4757;DHT22;2392;52.578;13.426;2023-08-08T02:48:50;13.50;99.90
4757;DHT22;2392;52.578;13.426;2023-08-08T02:51:19;13.50;99.90
4757;DHT22;2392;52.578;13.426;2023-08-08T02:53:46;13.50;99.90
4757;DHT22;2392;52.578;13.426;2023-08-08T02:56:13;13.40;99.90
4757;DHT22;2392;52.578;13.426;2023-08-08T02:58:42;13.40;99.90
4757;DHT22;2392;52.578;13.426;2023-08-08T03:01:09;13.40;99.90
4757;DHT22;2392;52.578;13.426;2023-08-08T03:03:37;13.40;99.90
4757;DHT22;2392;52.578;13.426;2023-08-08T03:06:04;13.40;99.90
4757;DHT22;2392;52.578;13.426;2023-08-08T03:08:35;13.30;99.90
4757;DHT22;2392;52.578;13.426;2023-08-08T03:11:04;13.30;99.90
4757;DHT22;2392;52.578;13.426;2023-08-08T03:13:32;13.30;99.90
4757;DHT22;2392;52.578;13.426;2023-08-08T03:15:59;13.30;99.90
4757;DHT22;2392;52.578;13.426;2023-08-08T03:18:26;13.20;99.90
4757;DHT22;2392;52.578;13.426;2023-08-08T03:20:54;13.20;99.90
4757;DHT22;2392;52.578;13.426;2023-08-08T03:23:22;13.20;99.90
4757;DHT22;2392;52.578;13.426;2023-08-08T03:25:51;13.20;99.90
4757;DHT22;2392;52.578;13.426;2023-08-08T03:28:18;13.20;99.90
4757;DHT22;2392;52.578;13.426;2023-08-08T03:30:45;13.20;99.90
4757;DHT22;2392;52.578;13.426;2023-08-08T03:33:13;13.20;99.90
4757;DHT22;2392;52.578;13.426;2023-08-08T03:35:40;13.10;99.90
4757;DHT22;2392;52.578;13.426;2023-08-08T03:38:09;13.10;99.90
4757;DHT22;2392;52.578;13.426;2023-08-08T03:40:36;13.10;99.90
4757;DHT22;2392;52.578;13.426;2023-08-08T03:43:05;13.10;99.90
4757;DHT22;2392;52.578;13.426;2023-08-08T03:45:32;13.10;99.90
4757;DHT22;2392;52.578;13.426;2023-08-08T03:47:59;13.10;99.90
4757;DHT22;2392;52.578;13.426;2023-08-08T03:50:26;13.10;99.90
4757;DHT22;2392;52.578;13.426;2023-08-08T03:52:53;13.10;99.90
4757;DHT22;2392;52.578;13.426;2023-08-08T03:55:20;13.10;99.90
4757;DHT22;2392;52.578;13.426;2023-08-08T03:57:47;13.10;99.90
4757;DHT22;2392;52.578;13.426;2023-08-08T04:00:16;13.10;99.90
4757;DHT22;2392;52.578;13.426;2023-08-08T04:02:43;13.10;99.90
4757;DHT22;2392;52.578;13.426;2023-08-08T04:05:10;13.20;99.90
4757;DHT22;2392;52.578;13.426;2023-08-08T04:07:37;13.20;99.90
4757;DHT22;2392;52.578;13.426;2023-08-08T04:10:05;13.20;99.90
4757;DHT22;2392;52.578;13.426;2023-08-08T04:12:33;13.20;99.90
4757;DHT22;2392;52.578;13.426;2023-08-08T04:15:00;13.30;99.90
4757;DHT22;2392;52.578;13.426;2023-08-08T04:17:28;13.30;99.90
4757;DHT22;2392;52.578;13.426;2023-08-08T04:19:55;13.40;99.90
4757;DHT22;2392;52.578;13.426;2023-08-08T04:22:22;13.40;99.90
4757;DHT22;2392;52.578;13.426;2023-08-08T04:24:49;13.40;99.90
4757;DHT22;2392;52.578;13.426;2023-08-08T04:27:16;13.40;99.90
4757;DHT22;2392;52.578;13.426;2023-08-08T04:29:44;13.40;99.90
4757;DHT22;2392;52.578;13.426;2023-08-08T04:32:10;13.30;99.90
4757;DHT22;2392;52.578;13.426;2023-08-08T04:34:39;13.30;99.90
4757;DHT22;2392;52.578;13.426;2023-08-08T04:37:06;13.30;99.90
4757;DHT22;2392;52.578;13.426;2023-08-08T04:39:33;13.30;99.90
4757;DHT22;2392;52.578;13.426;2023-08-08T04:42:00;13.30;99.90
4757;DHT22;2392;52.578;13.426;2023-08-08T04:44:27;13.40;99.90
4757;DHT22;2392;52.578;13.426;2023-08-08T04:46:54;13.40;99.90
4757;DHT22;2392;52.578;13.426;2023-08-08T04:49:21;13.40;99.90
4757;DHT22;2392;52.578;13.426;2023-08-08T04:51:49;13.40;99.90
4757;DHT22;2392;52.578;13.426;2023-08-08T04:54:16;13.40;99.90
4757;DHT22;2392;52.578;13.426;2023-08-08T04:56:43;13.50;99.90
4757;DHT22;2392;52.578;13.426;2023-08-08T04:59:10;13.50;99.90
4757;DHT22;2392;52.578;13.426;2023-08-08T05:01:37;13.50;99.90
4757;DHT22;2392;52.578;13.426;2023-08-08T05:04:04;13.60;99.90
4757;DHT22;2392;52.578;13.426;2023-08-08T05:06:31;13.60;99.90
4757;DHT22;2392;52.578;13.426;2023-08-08T05:09:00;13.60;99.90
4757;DHT22;2392;52.578;13.426;2023-08-08T05:11:27;13.70;99.90
4757;DHT22;2392;52.578;13.426;2023-08-08T05:13:54;13.70;99.90
4757;DHT22;2392;52.578;13.426;2023-08-08T05:16:23;13.70;99.90
4757;DHT22;2392;52.578;13.426;2023-08-08T05:18:50;13.70;99.90
4757;DHT22;2392;52.578;13.426;2023-08-08T05:21:17;13.70;99.90
4757;DHT22;2392;52.578;13.426;2023-08-08T05:23:44;13.70;99.90
4757;DHT22;2392;52.578;13.426;2023-08-08T05:26:14;13.70;99.90
4757;DHT22;2392;52.578;13.426;2023-08-08T05:28:41;13.70;99.90
4757;DHT22;2392;52.578;13.426;2023-08-08T05:31:08;13.80;99.90
4757;DHT22;2392;52.578;13.426;2023-08-08T05:33:36;13.80;99.90
4757;DHT22;2392;52.578;13.426;2023-08-08T05:36:03;13.80;99.90
4757;DHT22;2392;52.578;13.426;2023-08-08T05:38:32;13.80;99.90
4757;DHT22;2392;52.578;13.426;2023-08-08T05:40:59;13.90;99.90
4757;DHT22;2392;52.578;13.426;2023-08-08T05:43:27;14.00;99.90
4757;DHT22;2392;52.578;13.426;2023-08-08T05:45:54;14.10;99.90
4757;DHT22;2392;52.578;13.426;2023-08-08T05:48:21;14.20;99.90
4757;DHT22;2392;52.578;13.426;2023-08-08T05:50:48;14.30;99.90
4757;DHT22;2392;52.578;13.426;2023-08-08T05:53:18;14.30;99.90
4757;DHT22;2392;52.578;13.426;2023-08-08T05:55:45;14.40;99.90
4757;DHT22;2392;52.578;13.426;2023-08-08T05:58:12;14.50;99.90
4757;DHT22;2392;52.578;13.426;2023-08-08T06:00:41;14.50;99.90
4757;DHT22;2392;52.578;13.426;2023-08-08T06:03:08;14.50;99.90
4757;DHT22;2392;52.578;13.426;2023-08-08T06:05:35;14.50;99.90
4757;DHT22;2392;52.578;13.426;2023-08-08T06:08:02;14.50;99.90
4757;DHT22;2392;52.578;13.426;2023-08-08T06:10:32;14.50;99.90
4757;DHT22;2392;52.578;13.426;2023-08-08T06:13:00;14.60;99.90
4757;DHT22;2392;52.578;13.426;2023-08-08T06:15:27;14.70;99.90
4757;DHT22;2392;52.578;13.426;2023-08-08T06:17:56;14.70;99.90
4757;DHT22;2392;52.578;13.426;2023-08-08T06:20:24;14.70;99.90
4757;DHT22;2392;52.578;13.426;2023-08-08T06:22:52;14.70;99.90
4757;DHT22;2392;52.578;13.426;2023-08-08T06:25:19;14.70;99.90
4757;DHT22;2392;52.578;13.426;2023-08-08T06:27:46;14.80;99.90
4757;DHT22;2392;52.578;13.426;2023-08-08T06:30:13;14.90;99.90
4757;DHT22;2392;52.578;13.426;2023-08-08T06:32:40;15.00;99.90
4757;DHT22;2392;52.578;13.426;2023-08-08T06:35:09;15.00;99.90
4757;DHT22;2392;52.578;13.426;2023-08-08T06:37:36;15.10;99.90
4757;DHT22;2392;52.578;13.426;2023-08-08T06:40:04;15.30;99.90
4757;DHT22;2392;52.578;13.426;2023-08-08T06:42:32;15.40;99.90
4757;DHT22;2392;52.578;13.426;2023-08-08T06:45:01;15.40;99.90
4757;DHT22;2392;52.578;13.426;2023-08-08T06:47:28;15.40;99.90
4757;DHT22;2392;52.578;13.426;2023-08-08T06:49:55;15.50;99.90
4757;DHT22;2392;52.578;13.426;2023-08-08T06:52:23;15.50;99.90
4757;DHT22;2392;52.578;13.426;2023-08-08T06:54:50;15.40;99.90
4757;DHT22;2392;52.578;13.426;2023-08-08T06:57:17;15.40;99.90
4757;DHT22;2392;52.578;13.426;2023-08-08T06:59:44;15.40;99.90
4757;DHT22;2392;52.578;13.426;2023-08-08T07:02:16;15.30;99.90
4757;DHT22;2392;52.578;13.426;2023-08-08T07:04:43;15.40;99.90
4757;DHT22;2392;52.578;13.426;2023-08-08T07:07:10;15.40;99.90
4757;DHT22;2392;52.578;13.426;2023-08-08T07:09:38;15.40;99.90
4757;DHT22;2392;52.578;13.426;2023-08-08T07:12:06;15.50;99.90
4757;DHT22;2392;52.578;13.426;2023-08-08T07:14:33;15.50;99.90
4757;DHT22;2392;52.578;13.426;2023-08-08T07:17:00;15.50;99.90
4757;DHT22;2392;52.578;13.426;2023-08-08T07:19:29;15.60;99.90
4757;DHT22;2392;52.578;13.426;2023-08-08T07:21:56;15.70;99.90
4757;DHT22;2392;52.578;13.426;2023-08-08T07:24:22;15.80;99.90
4757;DHT22;2392;52.578;13.426;2023-08-08T07:26:55;16.00;99.90
4757;DHT22;2392;52.578;13.426;2023-08-08T07:29:22;16.10;99.90
4757;DHT22;2392;52.578;13.426;2023-08-08T07:31:51;16.10;99.90
4757;DHT22;2392;52.578;13.426;2023-08-08T07:34:19;16.20;99.90
4757;DHT22;2392;52.578;13.426;2023-08-08T07:36:47;16.10;99.90
4757;DHT22;2392;52.578;13.426;2023-08-08T07:39:14;16.10;99.90
4757;DHT22;2392;52.578;13.426;2023-08-08T07:41:41;16.10;99.90
4757;DHT22;2392;52.578;13.426;2023-08-08T07:44:09;16.00;99.90
4757;DHT22;2392;52.578;13.426;2023-08-08T07:46:36;16.00;99.90
4757;DHT22;2392;52.578;13.426;2023-08-08T07:49:03;16.00;99.90
4757;DHT22;2392;52.578;13.426;2023-08-08T07:51:31;16.00;99.90
4757;DHT22;2392;52.578;13.426;2023-08-08T07:53:58;16.10;99.90
4757;DHT22;2392;52.578;13.426;2023-08-08T07:56:26;16.20;99.90
4757;DHT22;2392;52.578;13.426;2023-08-08T07:58:53;16.20;99.90
4757;DHT22;2392;52.578;13.426;2023-08-08T08:01:21;16.20;99.90
4757;DHT22;2392;52.578;13.426;2023-08-08T08:03:48;16.30;99.90
4757;DHT22;2392;52.578;13.426;2023-08-08T08:06:15;16.30;99.90
4757;DHT22;2392;52.578;13.426;2023-08-08T08:08:42;16.30;99.90
4757;DHT22;2392;52.578;13.426;2023-08-08T08:11:09;16.30;99.90
4757;DHT22;2392;52.578;13.426;2023-08-08T08:13:37;16.40;99.90
4757;DHT22;2392;52.578;13.426;2023-08-08T08:16:05;16.50;99.90
4757;DHT22;2392;52.578;13.426;2023-08-08T08:18:33;16.60;99.90
4757;DHT22;2392;52.578;13.426;2023-08-08T08:21:01;16.70;99.90
4757;DHT22;2392;52.578;13.426;2023-08-08T08:23:28;16.80;99.90
4757;DHT22;2392;52.578;13.426;2023-08-08T08:25:57;16.80;99.90
4757;DHT22;2392;52.578;13.426;2023-08-08T08:28:25;16.70;99.90
4757;DHT22;2392;52.578;13.426;2023-08-08T08:30:52;16.60;99.90
4757;DHT22;2392;52.578;13.426;2023-08-08T08:33:19;16.60;99.90
4757;DHT22;2392;52.578;13.426;2023-08-08T08:35:47;16.60;99.90
4757;DHT22;2392;52.578;13.426;2023-08-08T08:38:14;16.60;99.90
4757;DHT22;2392;52.578;13.426;2023-08-08T08:40:41;16.60;99.90
4757;DHT22;2392;52.578;13.426;2023-08-08T08:43:11;16.70;99.90
4757;DHT22;2392;52.578;13.426;2023-08-08T08:45:38;16.90;99.90
4757;DHT22;2392;52.578;13.426;2023-08-08T08:48:09;16.90;99.90
4757;DHT22;2392;52.578;13.426;2023-08-08T08:50:37;17.00;99.90
4757;DHT22;2392;52.578;13.426;2023-08-08T08:53:07;17.00;99.90
4757;DHT22;2392;52.578;13.426;2023-08-08T08:55:34;17.00;99.90
4757;DHT22;2392;52.578;13.426;2023-08-08T08:58:01;17.00;99.90
4757;DHT22;2392;52.578;13.426;2023-08-08T09:00:29;17.10;99.90
4757;DHT22;2392;52.578;13.426;2023-08-08T09:02:57;17.10;99.90
4757;DHT22;2392;52.578;13.426;2023-08-08T09:05:25;17.20;99.90
4757;DHT22;2392;52.578;13.426;2023-08-08T09:07:52;17.50;99.90
4757;DHT22;2392;52.578;13.426;2023-08-08T09:10:21;17.60;99.90
4757;DHT22;2392;52.578;13.426;2023-08-08T09:12:48;17.60;99.90
4757;DHT22;2392;52.578;13.426;2023-08-08T09:15:15;17.50;99.90
4757;DHT22;2392;52.578;13.426;2023-08-08T09:17:43;17.60;99.90
4757;DHT22;2392;52.578;13.426;2023-08-08T09:20:12;17.60;99.90
4757;DHT22;2392;52.578;13.426;2023-08-08T09:22:39;17.60;99.90
4757;DHT22;2392;52.578;13.426;2023-08-08T09:25:07;17.70;99.90
4757;DHT22;2392;52.578;13.426;2023-08-08T09:27:36;17.80;99.90
4757;DHT22;2392;52.578;13.426;2023-08-08T09:30:03;17.80;99.90
4757;DHT22;2392;52.578;13.426;2023-08-08T09:32:31;17.70;99.90
4757;DHT22;2392;52.578;13.426;2023-08-08T09:34:59;17.80;99.90
4757;DHT22;2392;52.578;13.426;2023-08-08T09:37:26;18.00;99.90
4757;DHT22;2392;52.578;13.426;2023-08-08T09:39:56;18.10;99.90
4757;DHT22;2392;52.578;13.426;2023-08-08T09:42:27;18.00;99.90
4757;DHT22;2392;52.578;13.426;2023-08-08T09:44:57;17.90;99.90
4757;DHT22;2392;52.578;13.426;2023-08-08T09:47:25;17.70;99.90
4757;DHT22;2392;52.578;13.426;2023-08-08T09:49:58;17.80;99.90
4757;DHT22;2392;52.578;13.426;2023-08-08T09:52:27;18.10;99.90
4757;DHT22;2392;52.578;13.426;2023-08-08T09:54:54;18.20;99.90
4757;DHT22;2392;52.578;13.426;2023-08-08T09:57:22;18.40;99.90
4757;DHT22;2392;52.578;13.426;2023-08-08T09:59:49;18.30;99.90
4757;DHT22;2392;52.578;13.426;2023-08-08T10:02:19;18.10;99.90
4757;DHT22;2392;52.578;13.426;2023-08-08T10:04:46;17.90;99.90
4757;DHT22;2392;52.578;13.426;2023-08-08T10:07:14;17.70;99.90
4757;DHT22;2392;52.578;13.426;2023-08-08T10:09:42;17.50;99.90
4757;DHT22;2392;52.578;13.426;2023-08-08T10:12:09;17.40;99.90
4757;DHT22;2392;52.578;13.426;2023-08-08T10:14:41;17.30;99.90
4757;DHT22;2392;52.578;13.426;2023-08-08T10:17:13;17.40;99.90
4757;DHT22;2392;52.578;13.426;2023-08-08T10:19:50;17.90;99.90
4757;DHT22;2392;52.578;13.426;2023-08-08T10:22:20;18.80;99.90
4757;DHT22;2392;52.578;13.426;2023-08-08T10:24:47;18.80;99.90
4757;DHT22;2392;52.578;13.426;2023-08-08T10:27:27;18.50;99.90
4757;DHT22;2392;52.578;13.426;2023-08-08T10:30:01;18.20;99.90
4757;DHT22;2392;52.578;13.426;2023-08-08T10:32:28;18.10;99.90
4757;DHT22;2392;52.578;13.426;2023-08-08T10:35:06;18.70;99.90
4757;DHT22;2392;52.578;13.426;2023-08-08T10:37:36;20.10;99.90
4757;DHT22;2392;52.578;13.426;2023-08-08T10:40:05;21.50;99.90
4757;DHT22;2392;52.578;13.426;2023-08-08T10:42:40;22.80;99.90
4757;DHT22;2392;52.578;13.426;2023-08-08T10:45:10;23.50;99.90
4757;DHT22;2392;52.578;13.426;2023-08-08T10:47:38;23.90;99.90
4757;DHT22;2392;52.578;13.426;2023-08-08T10:50:08;23.30;99.90
4757;DHT22;2392;52.578;13.426;2023-08-08T10:52:56;22.10;99.90
4757;DHT22;2392;52.578;13.426;2023-08-08T10:55:24;20.70;99.90
4757;DHT22;2392;52.578;13.426;2023-08-08T10:57:54;19.60;99.90
4757;DHT22;2392;52.578;13.426;2023-08-08T11:00:25;18.80;99.90
4757;DHT22;2392;52.578;13.426;2023-08-08T11:02:53;18.50;99.90
4757;DHT22;2392;52.578;13.426;2023-08-08T11:05:23;18.70;99.90
4757;DHT22;2392;52.578;13.426;2023-08-08T11:07:52;19.80;99.90
4757;DHT22;2392;52.578;13.426;2023-08-08T11:10:20;21.30;99.90
4757;DHT22;2392;52.578;13.426;2023-08-08T11:12:57;22.50;99.90
4757;DHT22;2392;52.578;13.426;2023-08-08T11:15:24;23.70;99.90
4757;DHT22;2392;52.578;13.426;2023-08-08T11:17:53;24.20;99.90
4757;DHT22;2392;52.578;13.426;2023-08-08T11:20:22;24.60;99.90
4757;DHT22;2392;52.578;13.426;2023-08-08T11:22:53;24.70;99.90
4757;DHT22;2392;52.578;13.426;2023-08-08T11:25:21;24.60;99.90
4757;DHT22;2392;52.578;13.426;2023-08-08T11:27:49;24.70;99.90
4757;DHT22;2392;52.578;13.426;2023-08-08T11:30:16;24.30;99.90
4757;DHT22;2392;52.578;13.426;2023-08-08T11:32:44;23.80;99.90
4757;DHT22;2392;52.578;13.426;2023-08-08T11:35:16;23.30;99.90
4757;DHT22;2392;52.578;13.426;2023-08-08T11:37:46;22.10;99.90
4757;DHT22;2392;52.578;13.426;2023-08-08T11:40:13;21.10;99.90
4757;DHT22;2392;52.578;13.426;2023-08-08T11:42:41;20.30;99.90
4757;DHT22;2392;52.578;13.426;2023-08-08T11:45:09;19.90;99.90
4757;DHT22;2392;52.578;13.426;2023-08-08T11:47:37;19.80;99.90
4757;DHT22;2392;52.578;13.426;2023-08-08T11:50:06;19.50;99.90
4757;DHT22;2392;52.578;13.426;2023-08-08T11:52:35;19.60;99.90
4757;DHT22;2392;52.578;13.426;2023-08-08T11:55:05;19.60;99.90
4757;DHT22;2392;52.578;13.426;2023-08-08T11:57:33;19.70;99.90
4757;DHT22;2392;52.578;13.426;2023-08-08T12:00:03;19.70;99.90
4757;DHT22;2392;52.578;13.426;2023-08-08T12:02:39;19.70;99.90
4757;DHT22;2392;52.578;13.426;2023-08-08T12:05:07;19.70;99.90
4757;DHT22;2392;52.578;13.426;2023-08-08T12:07:35;19.70;99.90
4757;DHT22;2392;52.578;13.426;2023-08-08T12:10:05;19.80;99.90
4757;DHT22;2392;52.578;13.426;2023-08-08T12:12:33;19.90;99.90
4757;DHT22;2392;52.578;13.426;2023-08-08T12:15:03;19.90;99.90
4757;DHT22;2392;52.578;13.426;2023-08-08T12:17:31;19.80;99.90
4757;DHT22;2392;52.578;13.426;2023-08-08T12:19:59;19.90;99.90
4757;DHT22;2392;52.578;13.426;2023-08-08T12:22:26;20.00;99.90
4757;DHT22;2392;52.578;13.426;2023-08-08T12:24:53;20.10;99.90
4757;DHT22;2392;52.578;13.426;2023-08-08T12:27:21;20.30;99.90
4757;DHT22;2392;52.578;13.426;2023-08-08T12:29:48;20.60;99.90
4757;DHT22;2392;52.578;13.426;2023-08-08T12:32:15;20.70;99.90
4757;DHT22;2392;52.578;13.426;2023-08-08T12:34:42;20.90;99.90
4757;DHT22;2392;52.578;13.426;2023-08-08T12:37:09;21.10;99.90
4757;DHT22;2392;52.578;13.426;2023-08-08T12:39:36;21.20;99.90
4757;DHT22;2392;52.578;13.426;2023-08-08T12:42:03;21.30;99.90
4757;DHT22;2392;52.578;13.426;2023-08-08T12:44:32;21.30;99.90
4757;DHT22;2392;52.578;13.426;2023-08-08T12:46:59;21.30;99.90
4757;DHT22;2392;52.578;13.426;2023-08-08T12:49:26;21.20;99.90
4757;DHT22;2392;52.578;13.426;2023-08-08T12:51:52;21.00;99.90
4757;DHT22;2392;52.578;13.426;2023-08-08T12:54:21;20.60;99.90
4757;DHT22;2392;52.578;13.426;2023-08-08T12:56:48;20.40;99.90
4757;DHT22;2392;52.578;13.426;2023-08-08T12:59:15;20.10;99.90
4757;DHT22;2392;52.578;13.426;2023-08-08T13:01:43;20.00;99.90
4757;DHT22;2392;52.578;13.426;2023-08-08T13:04:10;20.10;99.90
4757;DHT22;2392;52.578;13.426;2023-08-08T13:06:37;20.20;99.90
4757;DHT22;2392;52.578;13.426;2023-08-08T13:09:04;20.00;99.90
4757;DHT22;2392;52.578;13.426;2023-08-08T13:11:31;20.10;99.90
4757;DHT22;2392;52.578;13.426;2023-08-08T13:13:58;20.20;99.90
4757;DHT22;2392;52.578;13.426;2023-08-08T13:16:25;20.30;99.90
4757;DHT22;2392;52.578;13.426;2023-08-08T13:18:54;20.40;99.90
4757;DHT22;2392;52.578;13.426;2023-08-08T13:21:21;20.40;99.90
4757;DHT22;2392;52.578;13.426;2023-08-08T13:23:48;20.50;99.90
4757;DHT22;2392;52.578;13.426;2023-08-08T13:26:15;20.60;99.90
4757;DHT22;2392;52.578;13.426;2023-08-08T13:28:42;20.60;99.90
4757;DHT22;2392;52.578;13.426;2023-08-08T13:31:09;20.60;99.90
4757;DHT22;2392;52.578;13.426;2023-08-08T13:33:36;20.70;99.90
4757;DHT22;2392;52.578;13.426;2023-08-08T13:36:05;20.70;99.90
4757;DHT22;2392;52.578;13.426;2023-08-08T13:38:32;20.70;99.90
4757;DHT22;2392;52.578;13.426;2023-08-08T13:40:59;20.60;99.90
4757;DHT22;2392;52.578;13.426;2023-08-08T13:43:26;20.40;99.90
4757;DHT22;2392;52.578;13.426;2023-08-08T13:45:55;20.20;99.90
4757;DHT22;2392;52.578;13.426;2023-08-08T13:48:22;19.60;99.90
4757;DHT22;2392;52.578;13.426;2023-08-08T13:50:50;19.40;99.90
4757;DHT22;2392;52.578;13.426;2023-08-08T13:53:19;18.80;99.90
4757;DHT22;2392;52.578;13.426;2023-08-08T13:55:46;18.00;99.90
4757;DHT22;2392;52.578;13.426;2023-08-08T13:58:13;17.60;99.90
4757;DHT22;2392;52.578;13.426;2023-08-08T14:00:40;17.50;99.90
4757;DHT22;2392;52.578;13.426;2023-08-08T14:03:07;17.40;99.90
4757;DHT22;2392;52.578;13.426;2023-08-08T14:05:34;17.50;99.90
4757;DHT22;2392;52.578;13.426;2023-08-08T14:08:03;17.70;99.90
4757;DHT22;2392;52.578;13.426;2023-08-08T14:10:32;17.80;99.90
4757;DHT22;2392;52.578;13.426;2023-08-08T14:12:59;18.00;99.90
4757;DHT22;2392;52.578;13.426;2023-08-08T14:15:25;18.20;99.90
4757;DHT22;2392;52.578;13.426;2023-08-08T14:18:05;18.40;99.90
4757;DHT22;2392;52.578;13.426;2023-08-08T14:20:32;18.60;99.90
4757;DHT22;2392;52.578;13.426;2023-08-08T14:22:59;18.70;99.90
4757;DHT22;2392;52.578;13.426;2023-08-08T14:25:26;18.80;99.90
4757;DHT22;2392;52.578;13.426;2023-08-08T14:27:56;19.00;99.90
4757;DHT22;2392;52.578;13.426;2023-08-08T14:30:24;19.20;99.90
4757;DHT22;2392;52.578;13.426;2023-08-08T14:32:53;19.50;99.90
4757;DHT22;2392;52.578;13.426;2023-08-08T14:35:20;19.60;99.90
4757;DHT22;2392;52.578;13.426;2023-08-08T14:37:47;19.50;99.90
4757;DHT22;2392;52.578;13.426;2023-08-08T14:40:14;19.50;99.90
4757;DHT22;2392;52.578;13.426;2023-08-08T14:42:41;19.40;99.90
4757;DHT22;2392;52.578;13.426;2023-08-08T14:45:10;19.30;99.90
4757;DHT22;2392;52.578;13.426;2023-08-08T14:47:37;19.30;99.90
4757;DHT22;2392;52.578;13.426;2023-08-08T14:50:05;19.40;99.90
4757;DHT22;2392;52.578;13.426;2023-08-08T14:52:33;19.70;99.90
4757;DHT22;2392;52.578;13.426;2023-08-08T14:55:01;19.80;99.90
4757;DHT22;2392;52.578;13.426;2023-08-08T14:57:28;19.70;99.90
4757;DHT22;2392;52.578;13.426;2023-08-08T14:59:55;19.60;99.90
4757;DHT22;2392;52.578;13.426;2023-08-08T15:02:23;19.50;99.90
4757;DHT22;2392;52.578;13.426;2023-08-08T15:04:50;19.40;99.90
4757;DHT22;2392;52.578;13.426;2023-08-08T15:07:17;19.30;99.90
4757;DHT22;2392;52.578;13.426;2023-08-08T15:09:44;19.10;99.90
4757;DHT22;2392;52.578;13.426;2023-08-08T15:12:14;19.00;99.90
4757;DHT22;2392;52.578;13.426;2023-08-08T15:14:41;18.90;99.90
4757;DHT22;2392;52.578;13.426;2023-08-08T15:17:08;18.70;99.90
4757;DHT22;2392;52.578;13.426;2023-08-08T15:19:37;18.70;99.90
4757;DHT22;2392;52.578;13.426;2023-08-08T15:22:04;18.50;99.90
4757;DHT22;2392;52.578;13.426;2023-08-08T15:24:32;18.40;99.90
4757;DHT22;2392;52.578;13.426;2023-08-08T15:27:01;18.30;99.90
4757;DHT22;2392;52.578;13.426;2023-08-08T15:29:28;18.30;99.90
4757;DHT22;2392;52.578;13.426;2023-08-08T15:31:56;18.20;99.90
4757;DHT22;2392;52.578;13.426;2023-08-08T15:34:23;18.10;99.90
4757;DHT22;2392;52.578;13.426;2023-08-08T15:36:51;18.00;99.90
4757;DHT22;2392;52.578;13.426;2023-08-08T15:39:19;17.40;99.90
4757;DHT22;2392;52.578;13.426;2023-08-08T15:41:46;17.00;99.90
4757;DHT22;2392;52.578;13.426;2023-08-08T15:44:13;16.50;99.90
4757;DHT22;2392;52.578;13.426;2023-08-08T15:46:40;16.20;99.90
4757;DHT22;2392;52.578;13.426;2023-08-08T15:49:07;16.00;99.90